Time;durP1;ratioP1;P1;durP2;ratioP2;P2;SDS_P1;SDS_P2;PMS_P1;PMS_P2;Temp;Humidity;BMP_temperature;BMP_pressure;BME280_temperature;BME280_humidity;BME280_pressure;Samples;Min_cycle;Max_cycle;Signal;HPM_P1;HPM_P2
2023/03/08 00:00:23;;;;;;;2.42;1.35;;;16.80;58.10;;;;;;5035832;28;20225;-63
2023/03/08 00:03:13;;;;;;;1.40;1.05;;;16.80;57.40;;;;;;5035348;28;20264;-63
2023/03/08 00:06:06;;;;;;;1.48;1.10;;;16.90;57.40;;;;;;5034486;28;20783;-65
2023/03/08 00:08:55;;;;;;;2.45;1.00;;;16.90;57.20;;;;;;5034697;28;20202;-63
2023/03/08 00:11:43;;;;;;;2.05;0.90;;;16.90;56.90;;;;;;5035448;28;20702;-63
2023/03/08 00:14:31;;;;;;;1.92;1.40;;;16.90;56.70;;;;;;5034865;28;20233;-63
2023/03/08 00:17:19;;;;;;;2.55;1.45;;;16.90;56.40;;;;;;5035358;28;20253;-63
2023/03/08 00:20:10;;;;;;;1.70;1.00;;;16.80;56.30;;;;;;5034868;28;20206;-63
2023/03/08 00:23:00;;;;;;;1.20;1.10;;;16.90;56.40;;;;;;5034846;28;20243;-63
2023/03/08 00:25:51;;;;;;;1.73;1.17;;;17.00;72.30;;;;;;5035062;28;20785;-63
2023/03/08 00:28:40;;;;;;;2.47;1.15;;;16.90;56.30;;;;;;5035121;28;20229;-63
2023/03/08 00:31:28;;;;;;;2.28;1.20;;;16.70;56.20;;;;;;5034879;28;20286;-63
2023/03/08 00:34:17;;;;;;;2.80;1.00;;;16.70;56.30;;;;;;5035361;28;20206;-63
2023/03/08 00:37:05;;;;;;;1.35;1.10;;;16.80;56.40;;;;;;5035052;28;20226;-63
2023/03/08 00:39:55;;;;;;;1.83;1.40;;;16.80;56.60;;;;;;5035221;28;20256;-62
2023/03/08 00:42:43;;;;;;;1.20;1.10;;;16.90;56.80;;;;;;5035054;28;20256;-63
2023/03/08 00:45:31;;;;;;;1.15;1.05;;;16.70;56.70;;;;;;5034078;28;20255;-63
2023/03/08 00:48:19;;;;;;;1.17;1.08;;;16.70;56.90;;;;;;5034116;28;20226;-63
2023/03/08 00:51:07;;;;;;;1.08;0.90;;;16.60;57.00;;;;;;5033689;28;20690;-63
2023/03/08 00:53:55;;;;;;;1.90;1.30;;;16.20;57.70;;;;;;5033042;28;20266;-63
2023/03/08 00:56:45;;;;;;;1.60;1.10;;;16.50;58.20;;;;;;5037621;28;20300;-63
2023/03/08 00:59:33;;;;;;;1.63;1.13;;;16.60;58.50;;;;;;5053876;28;20198;-63
2023/03/08 01:02:21;;;;;;;1.10;1.00;;;16.60;58.50;;;;;;5053750;28;20201;-63
2023/03/08 01:05:10;;;;;;;1.40;1.30;;;16.70;58.20;;;;;;5054263;28;20244;-63
2023/03/08 01:07:58;;;;;;;1.65;1.13;;;16.70;58.10;;;;;;5053589;28;20214;-63
2023/03/08 01:10:50;;;;;;;1.00;0.98;;;16.80;58.00;;;;;;5052890;28;20251;-63
2023/03/08 01:13:39;;;;;;;1.25;1.10;;;16.80;58.10;;;;;;5054424;28;20235;-63
2023/03/08 01:16:29;;;;;;;1.23;1.13;;;16.80;57.80;;;;;;5053798;28;20248;-63
2023/03/08 01:19:17;;;;;;;1.58;1.33;;;16.90;57.40;;;;;;5052792;28;20259;-65
2023/03/08 01:22:06;;;;;;;2.63;1.60;;;16.90;56.60;;;;;;5052598;28;20243;-65
2023/03/08 01:24:53;;;;;;;2.15;1.42;;;16.90;56.70;;;;;;5052761;28;20692;-65
2023/03/08 01:27:41;;;;;;;4.05;1.40;;;16.90;56.70;;;;;;5052031;28;20346;-65
2023/03/08 01:30:31;;;;;;;1.60;1.50;;;16.90;56.40;;;;;;5053129;28;20202;-63
2023/03/08 01:33:19;;;;;;;1.50;1.40;;;16.80;56.30;;;;;;5054033;28;20197;-63
2023/03/08 01:36:10;;;;;;;2.15;1.35;;;16.80;56.20;;;;;;5053286;28;20252;-63
2023/03/08 01:39:00;;;;;;;1.77;1.67;;;16.70;56.30;;;;;;5054104;28;20204;-63
2023/03/08 01:41:49;;;;;;;1.60;1.40;;;16.70;56.30;;;;;;5053796;28;20236;-63
2023/03/08 01:44:54;;;;;;;2.17;1.58;;;16.70;56.40;;;;;;5053503;28;20294;-63
2023/03/08 01:47:43;;;;;;;2.20;1.98;;;16.70;56.50;;;;;;5053089;28;20220;-63
2023/03/08 01:50:31;;;;;;;3.10;1.58;;;16.60;56.70;;;;;;5052256;28;20225;-63
2023/03/08 01:53:19;;;;;;;2.70;1.77;;;16.60;56.80;;;;;;5052723;28;20197;-63
2023/03/08 01:56:11;;;;;;;2.00;1.80;;;16.60;57.00;;;;;;5051323;28;20248;-63
2023/03/08 01:59:01;;;;;;;3.63;1.25;;;16.40;58.00;;;;;;5014144;28;20227;-63
2023/03/08 02:01:49;;;;;;;1.88;1.63;;;16.40;58.40;;;;;;5013743;28;20667;-63
2023/03/08 02:04:39;;;;;;;1.60;1.50;;;16.70;58.40;;;;;;5012483;28;20701;-63
2023/03/08 02:07:27;;;;;;;1.90;1.80;;;16.40;58.00;;;;;;5013321;28;20300;-63
2023/03/08 02:10:17;;;;;;;1.95;1.85;;;16.50;57.50;;;;;;5012666;28;20257;-63
2023/03/08 02:13:07;;;;;;;2.75;1.42;;;16.50;57.90;;;;;;5014092;28;20293;-63
2023/03/08 02:15:56;;;;;;;1.88;1.50;;;16.40;57.90;;;;;;5012834;28;20258;-63
2023/03/08 02:18:57;;;;;;;1.48;1.38;;;16.60;58.40;;;;;;5013688;28;20269;-63
2023/03/08 02:21:46;;;;;;;1.70;1.55;;;16.70;57.40;;;;;;5013259;28;20237;-63
2023/03/08 02:24:35;;;;;;;1.67;1.58;;;16.70;56.50;;;;;;5012222;28;20745;-63
2023/03/08 02:27:25;;;;;;;2.08;1.60;;;16.70;72.50;;;;;;5013940;28;20302;-63
2023/03/08 02:30:16;;;;;;;2.13;2.03;;;16.70;56.60;;;;;;5023355;28;20230;-63
2023/03/08 02:33:10;;;;;;;1.80;1.52;;;16.70;56.10;;;;;;5031778;28;20202;-62
2023/03/08 02:38:50;;;;;;;1.58;1.48;;;16.60;56.30;;;;;;4968244;28;20279;-68
2023/03/08 02:41:39;;;;;;;2.25;2.05;;;16.60;56.30;;;;;;4956127;29;20255;-68
2023/03/08 02:44:28;;;;;;;1.80;1.67;;;16.60;56.40;;;;;;4956148;29;20205;-68
2023/03/08 02:47:16;;;;;;;2.08;1.67;;;16.50;56.50;;;;;;4954964;28;20227;-70
2023/03/08 02:50:05;;;;;;;1.50;1.40;;;16.50;56.60;;;;;;4955964;29;20703;-69
2023/03/08 02:52:53;;;;;;;3.42;2.10;;;16.50;56.40;;;;;;4956215;29;20232;-69
2023/03/08 02:55:41;;;;;;;1.77;1.50;;;16.50;56.80;;;;;;4956380;28;20701;-70
2023/03/08 02:58:31;;;;;;;3.83;1.95;;;16.40;56.80;;;;;;4956221;29;20196;-67
2023/03/08 03:01:19;;;;;;;1.90;1.35;;;16.30;58.00;;;;;;4955196;29;20289;-67
2023/03/08 03:04:07;;;;;;;2.10;1.70;;;16.40;58.20;;;;;;4954209;29;20212;-66
2023/03/08 03:06:55;;;;;;;2.15;1.95;;;17.60;58.80;;;;;;4954332;28;20307;-68
2023/03/08 03:09:43;;;;;;;1.67;1.58;;;16.40;58.00;;;;;;4954954;29;20315;-68
2023/03/08 03:12:31;;;;;;;1.95;1.67;;;16.40;58.10;;;;;;4955492;29;20228;-67
2023/03/08 03:15:21;;;;;;;2.13;1.90;;;16.40;57.80;;;;;;4954950;28;20205;-67
2023/03/08 03:18:09;;;;;;;1.92;1.40;;;16.50;57.70;;;;;;4957567;28;20709;-67
2023/03/08 03:21:03;;;;;;;1.80;1.70;;;16.50;57.40;;;;;;4958533;29;20251;-67
2023/03/08 03:23:51;;;;;;;1.88;1.77;;;16.60;57.90;;;;;;4959764;29;20213;-67
2023/03/08 03:26:39;;;;;;;1.30;1.20;;;16.60;56.60;;;;;;4958742;28;20221;-67
2023/03/08 03:29:27;;;;;;;1.80;1.70;;;16.70;56.50;;;;;;4959183;29;20237;-67
2023/03/08 03:32:17;;;;;;;2.28;1.83;;;16.60;56.30;;;;;;4958507;29;20287;-67
2023/03/08 03:35:06;;;;;;;1.38;1.25;;;16.60;56.40;;;;;;4958892;29;20200;-68
2023/03/08 03:37:54;;;;;;;2.53;1.65;;;16.60;56.40;;;;;;4958628;28;20257;-68
2023/03/08 03:40:42;;;;;;;1.88;1.77;;;16.50;56.20;;;;;;4958079;29;20636;-68
2023/03/08 03:43:31;;;;;;;1.90;1.80;;;16.50;56.20;;;;;;4958633;29;20302;-67
2023/03/08 03:46:20;;;;;;;2.05;1.95;;;16.40;72.80;;;;;;4958361;28;20283;-68
2023/03/08 03:49:09;;;;;;;2.88;1.73;;;16.50;56.40;;;;;;4958199;29;20225;-66
2023/03/08 03:51:58;;;;;;;1.92;1.65;;;16.40;56.40;;;;;;4958769;29;20587;-67
2023/03/08 03:54:46;;;;;;;2.90;1.98;;;16.40;56.40;;;;;;4958234;29;20236;-71
2023/03/08 03:57:34;;;;;;;1.75;1.65;;;16.40;56.50;;;;;;4968485;28;20232;-67
2023/03/08 04:00:22;;;;;;;1.52;1.42;;;16.30;56.70;;;;;;4977155;28;20204;-67
2023/03/08 04:03:10;;;;;;;1.67;1.58;;;16.20;57.10;;;;;;4977761;28;20213;-67
2023/03/08 04:06:07;;;;;;;1.98;1.35;;;16.20;58.00;;;;;;4977021;28;20220;-66
2023/03/08 04:08:57;;;;;;;1.60;1.50;;;16.20;58.00;;;;;;4977639;28;20275;-68
2023/03/08 04:11:45;;;;;;;1.45;1.35;;;16.30;58.20;;;;;;4978380;28;20204;-67
2023/03/08 04:14:33;;;;;;;2.25;1.63;;;16.30;58.00;;;;;;4977043;28;20196;-67
2023/03/08 04:17:21;;;;;;;1.40;1.30;;;16.40;58.10;;;;;;4977374;28;20260;-66
2023/03/08 04:20:13;;;;;;;1.63;1.52;;;16.40;57.80;;;;;;4977167;28;20224;-69
2023/03/08 04:23:02;;;;;;;1.63;1.30;;;16.40;57.90;;;;;;4977617;28;20263;-68
2023/03/08 04:25:50;;;;;;;1.70;1.60;;;16.50;58.00;;;;;;4976720;28;20219;-68
2023/03/08 04:28:38;;;;;;;2.08;1.30;;;16.50;57.90;;;;;;4976473;28;20232;-70
2023/03/08 04:31:28;;;;;;;1.60;1.50;;;16.50;57.50;;;;;;4976911;28;20683;-67
2023/03/08 04:34:17;;;;;;;3.15;1.38;;;16.60;58.00;;;;;;4976801;28;20279;-68
2023/03/08 04:37:05;;;;;;;1.60;1.50;;;16.60;57.40;;;;;;4976606;28;20306;-67
2023/03/08 04:39:54;;;;;;;1.50;1.40;;;16.60;57.40;;;;;;4976922;28;20686;-67
2023/03/08 04:42:42;;;;;;;1.85;1.60;;;16.70;56.10;;;;;;4976371;28;20626;-67
2023/03/08 04:45:31;;;;;;;1.85;1.30;;;16.70;56.00;;;;;;4976116;28;20333;-69
2023/03/08 04:48:19;;;;;;;1.77;1.67;;;16.70;56.00;;;;;;4976576;28;20282;-68
2023/03/08 04:51:08;;;;;;;1.88;1.65;;;16.60;55.80;;;;;;4975738;28;20397;-67
2023/03/08 04:53:56;;;;;;;4.28;2.05;;;16.60;55.90;;;;;;4976545;28;20196;-67
2023/03/08 04:56:46;;;;;;;2.03;1.67;;;16.60;55.70;;;;;;4976273;28;20708;-68
2023/03/08 04:59:34;;;;;;;3.05;1.70;;;16.50;56.10;;;;;;4976427;28;20747;-66
2023/03/08 05:02:23;;;;;;;2.55;1.77;;;16.50;56.00;;;;;;4976429;28;20699;-68
2023/03/08 05:05:11;;;;;;;2.42;2.20;;;16.50;56.00;;;;;;4974550;28;20203;-68
2023/03/08 05:08:02;;;;;;;2.80;2.20;;;16.40;56.00;;;;;;4975337;28;20220;-67
2023/03/08 05:10:57;;;;;;;1.90;1.50;;;16.40;56.20;;;;;;4975817;28;20220;-67
2023/03/08 05:13:49;;;;;;;1.90;1.70;;;16.30;56.40;;;;;;4976039;28;20204;-68
2023/03/08 05:16:37;;;;;;;2.25;1.65;;;16.20;58.10;;;;;;4975571;28;20247;-66
2023/03/08 05:19:25;;;;;;;2.38;1.73;;;16.30;57.90;;;;;;4975666;28;20684;-67
2023/03/08 05:22:13;;;;;;;1.70;1.60;;;16.30;57.80;;;;;;4975909;28;20309;-66
2023/03/08 05:25:01;;;;;;;1.42;1.33;;;16.30;58.40;;;;;;4975173;28;20259;-67
2023/03/08 05:27:49;;;;;;;1.85;1.75;;;16.30;57.80;;;;;;4975792;28;20220;-68
2023/03/08 05:30:39;;;;;;;1.63;1.52;;;16.30;57.70;;;;;;4974924;28;20592;-68
2023/03/08 05:33:27;;;;;;;1.95;1.75;;;16.40;57.70;;;;;;4975967;28;20279;-68
2023/03/08 05:36:15;;;;;;;1.45;1.35;;;16.40;73.90;;;;;;4975470;28;20283;-67
2023/03/08 05:39:05;;;;;;;2.75;1.70;;;16.50;57.60;;;;;;4975638;28;20235;-67
2023/03/08 05:41:53;;;;;;;1.63;1.52;;;16.50;57.20;;;;;;4975754;28;20211;-69
2023/03/08 05:44:41;;;;;;;2.67;2.45;;;16.50;56.80;;;;;;4975218;28;20296;-70
2023/03/08 05:47:31;;;;;;;2.00;1.80;;;16.60;56.90;;;;;;4974792;28;20637;-67
2023/03/08 05:50:19;;;;;;;1.88;1.63;;;16.70;56.60;;;;;;4975235;28;20787;-68
2023/03/08 05:53:07;;;;;;;2.55;1.88;;;16.70;56.00;;;;;;4975017;28;20231;-68
2023/03/08 05:55:55;;;;;;;1.75;1.65;;;16.70;55.60;;;;;;4974806;28;20671;-68
2023/03/08 05:58:44;;;;;;;2.20;1.67;;;16.70;55.70;;;;;;4955798;29;20229;-68
2023/03/08 06:01:35;;;;;;;2.33;2.13;;;16.70;55.70;;;;;;4956694;28;20201;-68
2023/03/08 06:04:24;;;;;;;2.13;1.80;;;16.70;55.70;;;;;;4956251;29;20240;-67
2023/03/08 06:07:12;;;;;;;1.83;1.65;;;16.70;55.70;;;;;;4956476;28;20764;-68
2023/03/08 06:10:00;;;;;;;2.33;2.20;;;16.60;55.60;;;;;;4955610;29;20299;-68
2023/03/08 06:12:48;;;;;;;2.72;2.53;;;16.60;55.80;;;;;;4956896;28;20204;-67
2023/03/08 06:15:36;;;;;;;2.63;2.42;;;16.60;56.00;;;;;;4955799;29;20643;-71
2023/03/08 06:18:25;;;;;;;2.38;2.17;;;16.50;55.80;;;;;;4955932;28;20717;-67
2023/03/08 06:21:17;;;;;;;2.15;2.00;;;16.50;55.70;;;;;;4956534;29;20232;-69
2023/03/08 06:24:05;;;;;;;2.40;1.90;;;16.40;56.00;;;;;;4956167;29;20256;-68
2023/03/08 06:26:54;;;;;;;2.22;1.95;;;16.30;56.00;;;;;;4956629;28;20306;-67
2023/03/08 06:29:42;;;;;;;1.90;1.67;;;16.30;56.80;;;;;;4956466;29;20681;-69
2023/03/08 06:32:30;;;;;;;1.98;1.80;;;16.30;57.60;;;;;;4956587;29;20614;-66
2023/03/08 06:35:18;;;;;;;2.10;1.90;;;16.30;57.70;;;;;;4961970;28;20208;-69
2023/03/08 06:38:08;;;;;;;2.15;1.90;;;16.30;57.80;;;;;;4974727;28;20272;-68
2023/03/08 06:40:56;;;;;;;2.40;2.20;;;16.40;57.90;;;;;;4973970;28;20315;-68
2023/03/08 06:43:44;;;;;;;1.73;1.63;;;16.40;57.90;;;;;;4974518;28;20196;-68
2023/03/08 06:46:32;;;;;;;1.90;1.70;;;16.50;57.80;;;;;;4974308;28;20707;-69
2023/03/08 06:49:21;;;;;;;2.85;1.60;;;16.60;57.80;;;;;;4974442;28;20200;-67
2023/03/08 06:52:09;;;;;;;2.42;2.08;;;16.70;57.90;;;;;;4978412;28;20298;-66
2023/03/08 06:54:58;;;;;;;2.38;1.90;;;16.70;57.50;;;;;;4977083;28;20243;-69
2023/03/08 06:57:46;;;;;;;5.18;1.83;;;16.80;57.50;;;;;;4978831;28;20602;-67
2023/03/08 07:00:35;;;;;;;2.30;2.05;;;16.80;57.40;;;;;;4978284;28;20325;-68
2023/03/08 07:03:23;;;;;;;1.90;1.80;;;16.80;57.30;;;;;;4958427;29;20255;-70
2023/03/08 07:06:11;;;;;;;3.63;2.47;;;16.80;73.10;;;;;;4958573;28;20232;-67
2023/03/08 07:08:59;;;;;;;2.08;1.90;;;16.90;56.90;;;;;;4964460;28;20251;-68
2023/03/08 07:11:49;;;;;;;2.00;1.83;;;16.90;57.50;;;;;;4972526;28;20309;-67
2023/03/08 07:14:37;;;;;;;3.17;1.70;;;16.90;57.50;;;;;;4977116;28;20295;-70
2023/03/08 07:17:25;;;;;;;1.90;1.70;;;17.00;57.70;;;;;;4975404;28;20224;-68
2023/03/08 07:20:16;;;;;;;2.63;2.42;;;17.10;57.80;;;;;;4976051;28;20207;-68
2023/03/08 07:23:04;;;;;;;2.08;1.88;;;17.30;57.80;;;;;;4958680;29;20200;-68
2023/03/08 07:25:52;;;;;;;2.30;1.50;;;17.50;57.70;;;;;;4965896;28;20200;-71
2023/03/08 07:28:42;;;;;;;1.90;1.80;;;17.70;57.60;;;;;;4977708;28;20254;-68
2023/03/08 07:31:31;;;;;;;2.08;1.80;;;17.90;57.50;;;;;;4977778;28;20314;-68
2023/03/08 07:34:19;;;;;;;2.22;1.77;;;18.10;57.20;;;;;;4976675;28;20207;-69
2023/03/08 07:37:12;;;;;;;2.50;2.20;;;18.30;57.00;;;;;;4976997;28;20311;-68
2023/03/08 07:40:00;;;;;;;3.17;1.90;;;18.50;56.90;;;;;;4975004;28;20270;-72
2023/03/08 07:42:48;;;;;;;2.25;2.05;;;18.60;56.70;;;;;;4978679;28;20235;-73
2023/03/08 07:45:39;;;;;;;2.10;1.55;;;18.80;56.70;;;;;;4961934;28;20298;-71
2023/03/08 07:48:27;;;;;;;2.10;2.00;;;18.80;56.60;;;;;;4974177;28;20212;-72
2023/03/08 07:51:15;;;;;;;3.47;1.92;;;18.90;56.50;;;;;;4975099;28;20228;-69
2023/03/08 07:54:04;;;;;;;2.60;1.52;;;19.00;56.70;;;;;;4982864;28;20208;-70
2023/03/08 07:56:52;;;;;;;2.08;1.88;;;19.60;57.10;;;;;;4976652;28;20303;-71
2023/03/08 07:59:40;;;;;;;3.15;1.92;;;19.20;56.60;;;;;;4975033;28;20636;-73
2023/03/08 08:02:31;;;;;;;2.53;1.80;;;19.30;56.60;;;;;;4965781;28;20270;-75
2023/03/08 08:05:20;;;;;;;2.10;1.90;;;19.40;56.40;;;;;;4971597;28;20338;-72
2023/03/08 08:08:09;;;;;;;2.15;1.63;;;19.50;56.50;;;;;;4974418;28;20216;-71
2023/03/08 08:10:57;;;;;;;1.33;1.23;;;19.60;56.20;;;;;;4962712;28;20220;-71
2023/03/08 08:13:45;;;;;;;1.90;1.77;;;19.70;56.10;;;;;;4974053;28;20263;-71
2023/03/08 08:16:34;;;;;;;2.33;1.63;;;19.80;56.00;;;;;;4973870;28;20609;-72
2023/03/08 08:19:24;;;;;;;1.80;1.70;;;19.90;55.90;;;;;;4955320;29;20211;-69
2023/03/08 08:22:12;;;;;;;2.70;2.05;;;20.00;55.90;;;;;;4971052;28;20268;-70
2023/03/08 08:25:00;;;;;;;4.32;1.63;;;20.00;55.80;;;;;;4973404;28;20689;-70
2023/03/08 08:27:49;;;;;;;1.85;1.70;;;20.10;55.70;;;;;;4968630;28;20775;-70
2023/03/08 08:30:37;;;;;;;3.75;1.67;;;20.10;55.60;;;;;;4974782;28;20283;-69
2023/03/08 08:33:25;;;;;;;1.60;1.50;;;20.20;55.50;;;;;;4975002;28;20294;-69
2023/03/08 08:36:16;;;;;;;1.48;1.38;;;20.20;70.10;;;;;;4972814;28;20350;-69
2023/03/08 08:39:04;;;;;;;2.33;1.70;;;20.30;55.30;;;;;;4974514;28;20197;-70
2023/03/08 08:41:52;;;;;;;2.08;1.25;;;20.40;55.50;;;;;;4974288;28;20206;-69
2023/03/08 08:44:40;;;;;;;1.60;1.30;;;20.40;55.40;;;;;;4972060;28;20248;-71
2023/03/08 08:47:29;;;;;;;2.25;1.42;;;20.50;54.80;;;;;;5049020;22;20319;-60
2023/03/08 08:50:17;;;;;;;5.07;1.70;;;20.50;55.30;;;;;;5053326;28;20197;-60
2023/03/08 08:53:07;;;;;;;1.67;1.58;;;20.50;55.30;;;;;;5041221;28;20208;-60
2023/03/08 08:55:55;;;;;;;3.72;1.88;;;20.50;68.30;;;;;;5052525;28;20197;-60
2023/03/08 08:58:43;;;;;;;1.50;1.40;;;20.60;55.20;;;;;;5029669;28;20337;-61
2023/03/08 09:01:34;;;;;;;1.15;1.10;;;20.60;55.00;;;;;;5033129;28;20230;-60
2023/03/08 09:04:22;;;;;;;2.60;1.42;;;20.70;55.10;;;;;;5035542;28;20634;-63
2023/03/08 09:07:10;;;;;;;2.45;1.58;;;20.70;55.10;;;;;;5033578;28;20229;-64
2023/03/08 09:10:00;;;;;;;1.70;1.33;;;20.70;55.10;;;;;;5033482;28;20691;-63
2023/03/08 09:12:48;;;;;;;2.30;1.35;;;20.70;55.10;;;;;;5033904;28;20706;-60
2023/03/08 09:15:36;;;;;;;1.63;1.52;;;20.90;54.90;;;;;;5032383;28;20202;-61
2023/03/08 09:18:24;;;;;;;1.85;1.40;;;20.70;54.80;;;;;;5027564;28;20280;-60
2023/03/08 09:21:13;;;;;;;2.28;1.20;;;20.70;54.90;;;;;;5024056;28;20233;-60
2023/03/08 09:24:04;;;;;;;1.77;1.40;;;20.70;54.90;;;;;;5027041;28;20209;-63
2023/03/08 09:26:53;;;;;;;1.58;1.45;;;20.70;54.90;;;;;;5025495;28;20276;-61
2023/03/08 09:29:42;;;;;;;4.93;1.42;;;20.80;54.90;;;;;;5021344;28;20202;-62
2023/03/08 09:32:33;;;;;;;3.00;2.05;;;20.80;54.40;;;;;;5029263;28;20311;-62
2023/03/08 09:35:21;;;;;;;1.75;1.27;;;20.80;54.90;;;;;;5033255;28;20210;-62
2023/03/08 09:38:09;;;;;;;4.35;1.02;;;20.90;54.60;;;;;;5034685;28;20226;-61
2023/03/08 09:41:11;;;;;;;0.90;0.90;;;21.00;54.60;;;;;;5033247;28;20205;-62
2023/03/08 09:44:14;;;;;;;1.40;1.30;;;21.00;54.50;;;;;;5032962;28;20212;-62
2023/03/08 09:47:10;;;;;;;1.60;1.20;;;21.00;54.40;;;;;;5032426;28;20236;-62
2023/03/08 09:50:09;;;;;;;1.20;1.10;;;21.00;54.30;;;;;;5032879;28;20642;-62
2023/03/08 09:53:04;;;;;;;1.55;1.38;;;21.10;54.30;;;;;;5034263;28;20220;-62
2023/03/08 09:55:56;;;;;;;1.38;0.93;;;21.30;67.70;;;;;;5033753;28;20268;-62
2023/03/08 09:58:48;;;;;;;2.10;1.20;;;21.00;54.30;;;;;;5013677;28;20249;-62
2023/03/08 10:01:43;;;;;;;1.00;0.90;;;21.00;54.30;;;;;;5020048;28;20222;-62
2023/03/08 10:04:46;;;;;;;2.13;1.27;;;21.00;54.40;;;;;;5032907;28;20214;-63
2023/03/08 10:07:44;;;;;;;1.13;1.02;;;21.00;54.40;;;;;;5032357;28;20721;-62
2023/03/08 10:10:41;;;;;;;1.30;1.20;;;21.00;54.40;;;;;;5034444;28;20206;-62
2023/03/08 10:13:32;;;;;;;1.02;1.00;;;21.10;54.30;;;;;;5050035;28;20245;-63
2023/03/08 10:16:23;;;;;;;1.27;1.17;;;21.10;54.30;;;;;;5031986;28;20225;-63
2023/03/08 10:19:17;;;;;;;2.15;0.90;;;21.10;54.30;;;;;;5031939;28;20284;-62
2023/03/08 10:22:13;;;;;;;1.40;1.10;;;21.10;54.20;;;;;;5039470;28;20185;-63
2023/03/08 10:25:04;;;;;;;1.10;1.10;;;21.20;54.20;;;;;;5032106;28;20206;-62
2023/03/08 10:27:54;;;;;;;0.90;0.90;;;21.20;54.20;;;;;;5043599;28;20221;-63
2023/03/08 10:30:46;;;;;;;1.25;1.15;;;21.20;54.10;;;;;;5042627;28;20198;-63
2023/03/08 10:33:35;;;;;;;2.45;1.33;;;21.20;54.00;;;;;;5032747;28;20217;-63
2023/03/08 10:36:25;;;;;;;1.10;1.00;;;21.20;53.90;;;;;;5034100;28;20299;-63
2023/03/08 10:39:15;;;;;;;2.53;1.05;;;21.20;53.90;;;;;;5052004;28;20202;-62
2023/03/08 10:42:13;;;;;;;1.20;1.10;;;21.30;53.90;;;;;;5039775;28;20190;-63
2023/03/08 10:45:04;;;;;;;0.90;0.90;;;21.30;53.80;;;;;;5031999;28;20264;-63
2023/03/08 10:47:58;;;;;;;1.77;1.02;;;21.30;54.00;;;;;;5032663;28;20237;-63
2023/03/08 10:50:46;;;;;;;1.58;1.08;;;21.30;53.60;;;;;;5032092;28;20210;-63
2023/03/08 10:53:35;;;;;;;1.38;1.13;;;21.30;53.70;;;;;;5032262;28;20311;-63
2023/03/08 10:56:27;;;;;;;1.77;1.10;;;21.30;53.50;;;;;;5031659;28;20307;-63
2023/03/08 10:59:18;;;;;;;1.52;0.90;;;21.30;53.60;;;;;;5031386;28;20202;-63
2023/03/08 11:02:21;;;;;;;3.55;1.00;;;21.30;53.50;;;;;;5037780;28;20205;-63
2023/03/08 11:05:18;;;;;;;1.65;0.93;;;21.30;53.50;;;;;;5049853;28;20197;-63
2023/03/08 11:08:18;;;;;;;1.20;1.10;;;21.30;53.70;;;;;;5050137;28;20298;-63
2023/03/08 11:11:10;;;;;;;1.00;0.90;;;21.30;53.90;;;;;;5052265;28;20241;-63
2023/03/08 11:13:58;;;;;;;1.55;1.10;;;21.30;54.00;;;;;;5051678;28;20224;-62
2023/03/08 11:16:58;;;;;;;1.65;1.20;;;21.40;54.00;;;;;;5049452;28;20716;-62
2023/03/08 11:19:58;;;;;;;1.70;1.10;;;21.40;54.00;;;;;;5050563;28;20291;-62
2023/03/08 11:23:02;;;;;;;1.17;1.08;;;21.40;53.90;;;;;;5050979;28;20813;-62
2023/03/08 11:25:57;;;;;;;1.17;0.80;;;21.40;53.80;;;;;;5049749;28;20259;-62
2023/03/08 11:29:00;;;;;;;1.45;1.02;;;21.40;53.80;;;;;;5031747;28;20244;-65
2023/03/08 11:31:58;;;;;;;0.90;0.90;;;21.40;53.70;;;;;;5034646;28;20677;-63
2023/03/08 11:34:56;;;;;;;1.30;1.00;;;21.30;53.70;;;;;;5031812;28;20694;-63
2023/03/08 11:37:50;;;;;;;1.23;1.08;;;21.30;53.80;;;;;;5031457;28;20218;-63
2023/03/08 11:40:51;;;;;;;0.85;0.85;;;21.30;53.80;;;;;;5035390;28;20202;-63
2023/03/08 11:43:59;;;;;;;1.45;1.17;;;21.30;54.50;;;;;;5036714;28;20248;-63
2023/03/08 11:47:00;;;;;;;1.35;1.00;;;21.30;53.80;;;;;;5034004;28;20309;-62
2023/03/08 11:50:04;;;;;;;1.35;1.00;;;21.30;53.80;;;;;;5034629;28;20283;-63
2023/03/08 11:53:04;;;;;;;1.58;1.00;;;21.40;53.80;;;;;;5035883;28;20216;-63
2023/03/08 11:56:26;;;;;;;1.17;1.08;;;21.30;53.80;;;;;;5034568;28;20674;-63
2023/03/08 11:59:23;;;;;;;1.58;1.20;;;21.30;53.80;;;;;;5015944;28;20194;-63
2023/03/08 12:02:17;;;;;;;1.88;1.30;;;21.30;53.80;;;;;;5019361;28;20194;-63
2023/03/08 12:05:10;;;;;;;1.52;1.13;;;21.30;53.80;;;;;;5033914;28;20197;-63
2023/03/08 12:08:02;;;;;;;1.40;1.30;;;21.30;53.90;;;;;;5035850;28;20714;-62
2023/03/08 12:10:55;;;;;;;2.25;1.30;;;21.30;53.80;;;;;;5034477;28;20212;-63
2023/03/08 12:13:47;;;;;;;0.90;0.90;;;21.40;53.80;;;;;;5035418;28;20221;-63
2023/03/08 12:16:42;;;;;;;1.10;1.00;;;21.40;53.70;;;;;;5034816;28;20316;-62
2023/03/08 12:19:39;;;;;;;1.38;1.23;;;21.40;53.70;;;;;;5016758;28;20205;-63
2023/03/08 12:22:37;;;;;;;0.93;0.90;;;21.50;53.70;;;;;;5023057;28;20203;-63
2023/03/08 12:25:30;;;;;;;0.90;0.90;;;21.50;53.60;;;;;;5042480;28;20289;-63
2023/03/08 12:28:23;;;;;;;1.40;1.00;;;21.50;53.60;;;;;;5043659;28;20208;-63
2023/03/08 12:31:26;;;;;;;1.08;1.00;;;21.50;53.40;;;;;;5031660;28;20221;-63
2023/03/08 12:34:27;;;;;;;1.15;1.00;;;21.50;53.30;;;;;;5046499;28;20221;-63
2023/03/08 12:37:23;;;;;;;1.77;1.17;;;21.50;53.30;;;;;;5019661;28;20249;-62
2023/03/08 12:40:30;;;;;;;1.30;1.10;;;21.50;53.30;;;;;;5035073;28;20205;-63
2023/03/08 12:43:29;;;;;;;1.58;1.48;;;21.40;53.20;;;;;;5046809;28;20209;-62
2023/03/08 12:46:17;;;;;;;1.17;1.05;;;21.40;53.40;;;;;;5058334;28;20221;-63
2023/03/08 12:49:19;;;;;;;0.90;0.90;;;21.40;53.40;;;;;;5062414;28;20209;-63
2023/03/08 12:52:26;;;;;;;1.63;1.10;;;21.40;53.40;;;;;;5059611;28;20200;-63
2023/03/08 12:55:19;;;;;;;1.58;0.93;;;21.50;53.30;;;;;;5054397;28;20299;-63
2023/03/08 12:58:17;;;;;;;0.90;0.90;;;21.50;53.30;;;;;;5037960;28;20649;-62
2023/03/08 13:01:07;;;;;;;2.30;1.15;;;21.50;53.30;;;;;;5034212;28;20198;-62
2023/03/08 13:03:55;;;;;;;6.47;1.35;;;21.60;54.10;;;;;;5034208;28;20190;-62
2023/03/08 13:07:12;;;;;;;1.10;1.00;;;21.60;53.70;;;;;;5033123;28;20230;-62
2023/03/08 13:10:08;;;;;;;1.60;1.00;;;21.60;53.60;;;;;;5033143;28;20202;-62
2023/03/08 13:13:13;;;;;;;2.88;1.15;;;21.70;53.60;;;;;;5033155;28;20249;-62
2023/03/08 13:16:30;;;;;;;1.70;1.00;;;21.70;53.50;;;;;;5032768;28;20218;-63
2023/03/08 13:19:25;;;;;;;1.77;1.30;;;21.70;53.50;;;;;;5032818;28;20212;-62
2023/03/08 13:22:20;;;;;;;2.35;1.15;;;21.40;67.10;;;;;;5033564;28;20252;-60
2023/03/08 13:25:18;;;;;;;1.33;1.08;;;21.70;53.50;;;;;;5032146;28;20244;-63
2023/03/08 13:28:10;;;;;;;1.40;1.30;;;21.70;53.40;;;;;;5039875;28;20217;-61
2023/03/08 13:31:01;;;;;;;3.83;1.10;;;21.70;53.30;;;;;;5031378;28;20198;-62
2023/03/08 13:33:51;;;;;;;3.92;1.10;;;21.70;53.40;;;;;;5033107;28;20686;-62
2023/03/08 13:36:39;;;;;;;1.80;1.00;;;21.70;53.40;;;;;;5032846;28;20323;-61
2023/03/08 13:39:30;;;;;;;2.38;1.10;;;21.70;53.40;;;;;;5033303;28;20214;-60
2023/03/08 13:42:23;;;;;;;1.27;1.05;;;21.70;53.40;;;;;;5032944;28;20806;-60
2023/03/08 13:45:17;;;;;;;1.13;1.02;;;21.60;53.40;;;;;;5032631;28;20202;-61
2023/03/08 13:48:08;;;;;;;1.15;1.10;;;21.60;53.40;;;;;;5032449;28;20233;-61
2023/03/08 13:50:58;;;;;;;2.97;1.20;;;21.60;53.40;;;;;;5032963;28;20689;-61
2023/03/08 13:53:46;;;;;;;1.00;1.00;;;21.60;53.40;;;;;;5031622;28;20274;-60
2023/03/08 13:56:36;;;;;;;1.55;1.13;;;21.60;53.50;;;;;;5032217;28;20229;-62
2023/03/08 13:59:24;;;;;;;1.88;1.20;;;21.50;53.50;;;;;;5048814;28;20201;-61
2023/03/08 14:02:21;;;;;;;2.28;1.30;;;21.50;53.70;;;;;;5034021;28;20202;-60
2023/03/08 14:05:16;;;;;;;1.65;1.15;;;21.40;53.70;;;;;;5020761;28;20202;-62
2023/03/08 14:08:06;;;;;;;6.88;1.38;;;21.40;53.90;;;;;;5027218;28;20655;-61
2023/03/08 14:10:58;;;;;;;1.75;1.00;;;21.50;53.80;;;;;;5033425;28;20233;-60
2023/03/08 14:13:50;;;;;;;1.63;0.90;;;21.50;53.80;;;;;;5032872;28;20602;-60
2023/03/08 14:16:42;;;;;;;1.80;1.00;;;21.60;53.80;;;;;;5023972;28;20707;-60
2023/03/08 14:19:32;;;;;;;1.73;0.90;;;21.60;53.70;;;;;;5025088;28;20252;-63
2023/03/08 14:22:22;;;;;;;1.05;0.95;;;21.60;53.70;;;;;;5014260;28;20277;-63
2023/03/08 14:25:28;;;;;;;1.73;1.38;;;21.70;53.80;;;;;;5013523;28;20270;-60
2023/03/08 14:28:38;;;;;;;4.05;1.13;;;21.70;53.80;;;;;;5019482;28;20257;-61
2023/03/08 14:31:30;;;;;;;1.23;1.13;;;21.80;53.70;;;;;;5033758;28;20207;-60
2023/03/08 14:34:21;;;;;;;1.52;1.00;;;21.80;53.50;;;;;;5045828;28;20243;-60
2023/03/08 14:37:19;;;;;;;4.43;1.38;;;21.80;53.50;;;;;;5042674;28;20214;-60
2023/03/08 14:40:21;;;;;;;1.80;1.38;;;21.80;53.40;;;;;;5023186;28;20199;-63
2023/03/08 14:43:16;;;;;;;1.10;1.00;;;21.80;53.40;;;;;;5037420;28;20608;-63
2023/03/08 14:46:07;;;;;;;1.40;1.00;;;21.70;66.80;;;;;;5052528;28;20688;-60
2023/03/08 14:48:59;;;;;;;1.30;1.20;;;21.80;53.40;;;;;;5051761;28;20201;-61
2023/03/08 14:51:48;;;;;;;2.55;1.00;;;21.80;53.40;;;;;;5051018;28;20202;-61
2023/03/08 14:54:37;;;;;;;1.25;1.15;;;21.70;53.30;;;;;;5051183;28;20291;-63